sensor_id;sensor_type;location;lat;lon;timestamp;temperature;humidity
2497;DHT22;1259;48.306;14.374;2023-01-20T00:01:35;-1.60;99.90
2497;DHT22;1259;48.306;14.374;2023-01-20T00:04:03;-1.50;99.90
2497;DHT22;1259;48.306;14.374;2023-01-20T00:06:30;-1.60;99.90
2497;DHT22;1259;48.306;14.374;2023-01-20T00:08:59;-1.60;99.90
2497;DHT22;1259;48.306;14.374;2023-01-20T00:11:27;-1.50;99.90
2497;DHT22;1259;48.306;14.374;2023-01-20T00:13:55;-1.50;99.90
2497;DHT22;1259;48.306;14.374;2023-01-20T00:16:23;-1.40;99.90
2497;DHT22;1259;48.306;14.374;2023-01-20T00:18:50;-1.30;99.90
2497;DHT22;1259;48.306;14.374;2023-01-20T00:21:18;-1.40;99.90
2497;DHT22;1259;48.306;14.374;2023-01-20T00:23:46;-1.40;99.90
2497;DHT22;1259;48.306;14.374;2023-01-20T00:26:15;-1.40;99.90
2497;DHT22;1259;48.306;14.374;2023-01-20T00:28:42;-1.40;99.90
2497;DHT22;1259;48.306;14.374;2023-01-20T00:31:11;-1.40;99.90
2497;DHT22;1259;48.306;14.374;2023-01-20T00:33:38;-1.40;99.90
2497;DHT22;1259;48.306;14.374;2023-01-20T00:36:05;-1.50;99.90
2497;DHT22;1259;48.306;14.374;2023-01-20T00:38:34;-1.60;99.90
2497;DHT22;1259;48.306;14.374;2023-01-20T00:41:01;-1.50;99.90
2497;DHT22;1259;48.306;14.374;2023-01-20T00:43:27;-1.40;99.90
2497;DHT22;1259;48.306;14.374;2023-01-20T00:45:54;-1.50;99.90
2497;DHT22;1259;48.306;14.374;2023-01-20T00:48:21;-1.60;99.90
2497;DHT22;1259;48.306;14.374;2023-01-20T00:50:48;-1.70;99.90
2497;DHT22;1259;48.306;14.374;2023-01-20T00:53:15;-1.70;99.90
2497;DHT22;1259;48.306;14.374;2023-01-20T00:55:44;-1.70;99.90
2497;DHT22;1259;48.306;14.374;2023-01-20T00:58:10;-1.80;99.90
2497;DHT22;1259;48.306;14.374;2023-01-20T01:00:37;-2.00;99.90
2497;DHT22;1259;48.306;14.374;2023-01-20T01:03:04;-2.10;99.90
2497;DHT22;1259;48.306;14.374;2023-01-20T01:05:31;-2.00;99.90
2497;DHT22;1259;48.306;14.374;2023-01-20T01:07:58;-1.90;99.90
2497;DHT22;1259;48.306;14.374;2023-01-20T01:10:25;-1.90;99.90
2497;DHT22;1259;48.306;14.374;2023-01-20T01:12:53;-1.90;99.90
2497;DHT22;1259;48.306;14.374;2023-01-20T01:15:20;-1.80;99.90
2497;DHT22;1259;48.306;14.374;2023-01-20T01:17:47;-1.80;99.90
2497;DHT22;1259;48.306;14.374;2023-01-20T01:20:14;-1.80;99.90
2497;DHT22;1259;48.306;14.374;2023-01-20T01:22:41;-1.80;99.90
2497;DHT22;1259;48.306;14.374;2023-01-20T01:25:08;-1.80;99.90
2497;DHT22;1259;48.306;14.374;2023-01-20T01:27:35;-1.70;99.90
2497;DHT22;1259;48.306;14.374;2023-01-20T01:30:04;-1.70;99.90
2497;DHT22;1259;48.306;14.374;2023-01-20T01:32:31;-1.70;99.90
2497;DHT22;1259;48.306;14.374;2023-01-20T01:34:58;-1.80;99.90
2497;DHT22;1259;48.306;14.374;2023-01-20T01:37:26;-1.90;99.90
2497;DHT22;1259;48.306;14.374;2023-01-20T01:39:53;-1.80;99.90
2497;DHT22;1259;48.306;14.374;2023-01-20T01:42:24;-1.80;99.90
2497;DHT22;1259;48.306;14.374;2023-01-20T01:45:18;-1.90;99.90
2497;DHT22;1259;48.306;14.374;2023-01-20T01:47:50;-1.80;99.90
2497;DHT22;1259;48.306;14.374;2023-01-20T01:50:20;-1.80;99.90
2497;DHT22;1259;48.306;14.374;2023-01-20T01:52:51;-1.90;99.90
2497;DHT22;1259;48.306;14.374;2023-01-20T01:55:21;-1.80;99.90
2497;DHT22;1259;48.306;14.374;2023-01-20T01:57:49;-1.80;99.90
2497;DHT22;1259;48.306;14.374;2023-01-20T02:00:18;-1.80;99.90
2497;DHT22;1259;48.306;14.374;2023-01-20T02:02:46;-1.90;99.90
2497;DHT22;1259;48.306;14.374;2023-01-20T02:05:13;-1.90;99.90
2497;DHT22;1259;48.306;14.374;2023-01-20T02:07:43;-2.00;99.90
2497;DHT22;1259;48.306;14.374;2023-01-20T02:10:11;-2.10;99.90
2497;DHT22;1259;48.306;14.374;2023-01-20T02:12:39;-2.10;99.90
2497;DHT22;1259;48.306;14.374;2023-01-20T02:15:07;-2.00;99.90
2497;DHT22;1259;48.306;14.374;2023-01-20T02:17:41;-2.00;99.90
2497;DHT22;1259;48.306;14.374;2023-01-20T02:20:37;-2.00;99.90
2497;DHT22;1259;48.306;14.374;2023-01-20T02:23:15;-2.00;99.90
2497;DHT22;1259;48.306;14.374;2023-01-20T02:29:22;-2.00;99.90
2497;DHT22;1259;48.306;14.374;2023-01-20T02:32:10;-2.00;99.90
2497;DHT22;1259;48.306;14.374;2023-01-20T02:34:45;-2.00;99.90
2497;DHT22;1259;48.306;14.374;2023-01-20T02:37:18;-2.00;99.90
2497;DHT22;1259;48.306;14.374;2023-01-20T02:39:55;-2.00;99.90
2497;DHT22;1259;48.306;14.374;2023-01-20T02:42:27;-2.20;99.90
2497;DHT22;1259;48.306;14.374;2023-01-20T02:45:03;-2.30;99.90
2497;DHT22;1259;48.306;14.374;2023-01-20T02:47:38;-2.10;99.90
2497;DHT22;1259;48.306;14.374;2023-01-20T02:50:09;-2.10;99.90
2497;DHT22;1259;48.306;14.374;2023-01-20T02:52:40;-1.90;99.90
2497;DHT22;1259;48.306;14.374;2023-01-20T02:55:10;-1.90;99.90
2497;DHT22;1259;48.306;14.374;2023-01-20T02:57:41;-1.90;99.90
2497;DHT22;1259;48.306;14.374;2023-01-20T03:00:12;-1.80;99.90
2497;DHT22;1259;48.306;14.374;2023-01-20T03:02:43;-1.80;99.90
2497;DHT22;1259;48.306;14.374;2023-01-20T03:05:14;-1.70;99.90
2497;DHT22;1259;48.306;14.374;2023-01-20T03:07:43;-1.80;99.90
2497;DHT22;1259;48.306;14.374;2023-01-20T03:10:15;-1.70;99.90
2497;DHT22;1259;48.306;14.374;2023-01-20T03:12:45;-1.70;99.90
2497;DHT22;1259;48.306;14.374;2023-01-20T03:15:15;-1.70;99.90
2497;DHT22;1259;48.306;14.374;2023-01-20T03:17:45;-1.80;99.90
2497;DHT22;1259;48.306;14.374;2023-01-20T03:20:13;-1.90;99.90
2497;DHT22;1259;48.306;14.374;2023-01-20T03:22:39;-2.00;99.90
2497;DHT22;1259;48.306;14.374;2023-01-20T03:25:08;-1.90;99.90
2497;DHT22;1259;48.306;14.374;2023-01-20T03:27:36;-1.90;99.90
2497;DHT22;1259;48.306;14.374;2023-01-20T03:30:05;-1.90;99.90
2497;DHT22;1259;48.306;14.374;2023-01-20T03:32:32;-1.90;99.90
2497;DHT22;1259;48.306;14.374;2023-01-20T03:35:01;-2.10;99.90
2497;DHT22;1259;48.306;14.374;2023-01-20T03:37:28;-2.10;99.90
2497;DHT22;1259;48.306;14.374;2023-01-20T03:39:55;-2.20;99.90
2497;DHT22;1259;48.306;14.374;2023-01-20T03:42:26;-2.20;99.90
2497;DHT22;1259;48.306;14.374;2023-01-20T03:45:00;-2.40;99.90
2497;DHT22;1259;48.306;14.374;2023-01-20T03:47:43;-2.40;99.90
2497;DHT22;1259;48.306;14.374;2023-01-20T03:50:25;-2.40;99.90
2497;DHT22;1259;48.306;14.374;2023-01-20T03:53:02;-2.40;99.90
2497;DHT22;1259;48.306;14.374;2023-01-20T03:55:34;-2.40;99.90
2497;DHT22;1259;48.306;14.374;2023-01-20T03:58:04;-2.30;99.90
2497;DHT22;1259;48.306;14.374;2023-01-20T04:00:34;-2.30;99.90
2497;DHT22;1259;48.306;14.374;2023-01-20T04:03:05;-2.30;99.90
2497;DHT22;1259;48.306;14.374;2023-01-20T04:05:35;-2.20;99.90
2497;DHT22;1259;48.306;14.374;2023-01-20T04:08:06;-2.20;99.90
2497;DHT22;1259;48.306;14.374;2023-01-20T04:10:35;-2.20;99.90
2497;DHT22;1259;48.306;14.374;2023-01-20T04:13:03;-2.30;99.90
2497;DHT22;1259;48.306;14.374;2023-01-20T04:15:32;-2.20;99.90
2497;DHT22;1259;48.306;14.374;2023-01-20T04:18:10;-2.20;99.90
2497;DHT22;1259;48.306;14.374;2023-01-20T04:20:39;-2.10;99.90
2497;DHT22;1259;48.306;14.374;2023-01-20T04:23:09;-2.10;99.90
2497;DHT22;1259;48.306;14.374;2023-01-20T04:25:38;-2.10;99.90
2497;DHT22;1259;48.306;14.374;2023-01-20T04:28:05;-2.10;99.90
2497;DHT22;1259;48.306;14.374;2023-01-20T04:30:31;-2.10;99.90
2497;DHT22;1259;48.306;14.374;2023-01-20T04:32:58;-2.00;99.90
2497;DHT22;1259;48.306;14.374;2023-01-20T04:35:25;-2.00;99.90
2497;DHT22;1259;48.306;14.374;2023-01-20T04:37:53;-2.10;99.90
2497;DHT22;1259;48.306;14.374;2023-01-20T04:40:20;-2.10;99.90
2497;DHT22;1259;48.306;14.374;2023-01-20T04:42:47;-2.00;99.90
2497;DHT22;1259;48.306;14.374;2023-01-20T04:45:14;-2.00;99.90
2497;DHT22;1259;48.306;14.374;2023-01-20T04:47:41;-2.00;99.90
2497;DHT22;1259;48.306;14.374;2023-01-20T04:50:10;-1.90;99.90
2497;DHT22;1259;48.306;14.374;2023-01-20T04:52:37;-1.80;99.90
2497;DHT22;1259;48.306;14.374;2023-01-20T04:55:06;-1.90;99.90
2497;DHT22;1259;48.306;14.374;2023-01-20T04:57:33;-1.90;99.90
2497;DHT22;1259;48.306;14.374;2023-01-20T05:00:00;-2.00;99.90
2497;DHT22;1259;48.306;14.374;2023-01-20T05:02:27;-2.00;99.90
2497;DHT22;1259;48.306;14.374;2023-01-20T05:04:54;-2.00;99.90
2497;DHT22;1259;48.306;14.374;2023-01-20T05:07:21;-2.00;99.90
2497;DHT22;1259;48.306;14.374;2023-01-20T05:09:47;-2.10;99.90
2497;DHT22;1259;48.306;14.374;2023-01-20T05:12:16;-2.10;99.90
2497;DHT22;1259;48.306;14.374;2023-01-20T05:14:42;-2.10;99.90
2497;DHT22;1259;48.306;14.374;2023-01-20T05:17:09;-2.00;99.90
2497;DHT22;1259;48.306;14.374;2023-01-20T05:19:36;-2.10;99.90
2497;DHT22;1259;48.306;14.374;2023-01-20T05:22:03;-2.00;99.90
2497;DHT22;1259;48.306;14.374;2023-01-20T05:24:30;-2.00;99.90
2497;DHT22;1259;48.306;14.374;2023-01-20T05:26:59;-2.00;99.90
2497;DHT22;1259;48.306;14.374;2023-01-20T05:29:27;-1.90;99.90
2497;DHT22;1259;48.306;14.374;2023-01-20T05:31:54;-1.90;99.90
2497;DHT22;1259;48.306;14.374;2023-01-20T05:34:21;-1.90;99.90
2497;DHT22;1259;48.306;14.374;2023-01-20T05:36:50;-1.90;99.90
2497;DHT22;1259;48.306;14.374;2023-01-20T05:39:17;-2.00;99.90
2497;DHT22;1259;48.306;14.374;2023-01-20T05:41:44;-1.90;99.90
2497;DHT22;1259;48.306;14.374;2023-01-20T05:44:11;-1.80;99.90
2497;DHT22;1259;48.306;14.374;2023-01-20T05:46:39;-1.80;99.90
2497;DHT22;1259;48.306;14.374;2023-01-20T05:49:08;-1.90;99.90
2497;DHT22;1259;48.306;14.374;2023-01-20T05:51:35;-2.00;99.90
2497;DHT22;1259;48.306;14.374;2023-01-20T05:54:02;-1.80;99.90
2497;DHT22;1259;48.306;14.374;2023-01-20T05:56:29;-2.00;99.90
2497;DHT22;1259;48.306;14.374;2023-01-20T05:58:56;-2.00;99.90
2497;DHT22;1259;48.306;14.374;2023-01-20T06:01:23;-2.00;99.90
2497;DHT22;1259;48.306;14.374;2023-01-20T06:03:51;-1.90;99.90
2497;DHT22;1259;48.306;14.374;2023-01-20T06:06:18;-1.90;99.90
2497;DHT22;1259;48.306;14.374;2023-01-20T06:08:45;-1.80;99.90
2497;DHT22;1259;48.306;14.374;2023-01-20T06:11:14;-1.80;99.90
2497;DHT22;1259;48.306;14.374;2023-01-20T06:13:42;-1.80;99.90
2497;DHT22;1259;48.306;14.374;2023-01-20T06:16:09;-1.80;99.90
2497;DHT22;1259;48.306;14.374;2023-01-20T06:18:36;-1.80;99.90
2497;DHT22;1259;48.306;14.374;2023-01-20T06:21:05;-1.80;99.90
2497;DHT22;1259;48.306;14.374;2023-01-20T06:23:32;-1.80;99.90
2497;DHT22;1259;48.306;14.374;2023-01-20T06:25:59;-1.80;99.90
2497;DHT22;1259;48.306;14.374;2023-01-20T06:28:27;-1.90;99.90
2497;DHT22;1259;48.306;14.374;2023-01-20T06:31:00;-1.90;99.90
2497;DHT22;1259;48.306;14.374;2023-01-20T06:33:27;-1.80;99.90
2497;DHT22;1259;48.306;14.374;2023-01-20T06:35:55;-1.80;99.90
2497;DHT22;1259;48.306;14.374;2023-01-20T06:38:25;-1.90;99.90
2497;DHT22;1259;48.306;14.374;2023-01-20T06:40:56;-1.80;99.90
2497;DHT22;1259;48.306;14.374;2023-01-20T06:43:23;-1.80;99.90
2497;DHT22;1259;48.306;14.374;2023-01-20T06:45:50;-1.90;99.90
2497;DHT22;1259;48.306;14.374;2023-01-20T06:48:17;-1.90;99.90
2497;DHT22;1259;48.306;14.374;2023-01-20T06:50:44;-1.80;99.90
2497;DHT22;1259;48.306;14.374;2023-01-20T06:53:11;-1.80;99.90
2497;DHT22;1259;48.306;14.374;2023-01-20T06:55:39;-1.80;99.90
2497;DHT22;1259;48.306;14.374;2023-01-20T06:58:08;-1.80;99.90
2497;DHT22;1259;48.306;14.374;2023-01-20T07:00:35;-1.70;99.90
2497;DHT22;1259;48.306;14.374;2023-01-20T07:03:01;-1.80;99.90
2497;DHT22;1259;48.306;14.374;2023-01-20T07:05:28;-1.90;99.90
2497;DHT22;1259;48.306;14.374;2023-01-20T07:07:55;-1.70;99.90
2497;DHT22;1259;48.306;14.374;2023-01-20T07:10:22;-1.70;99.90
2497;DHT22;1259;48.306;14.374;2023-01-20T07:12:50;-1.70;99.90
2497;DHT22;1259;48.306;14.374;2023-01-20T07:15:17;-1.70;99.90
2497;DHT22;1259;48.306;14.374;2023-01-20T07:17:44;-1.70;99.90
2497;DHT22;1259;48.306;14.374;2023-01-20T07:20:11;-1.70;99.90
2497;DHT22;1259;48.306;14.374;2023-01-20T07:22:38;-1.70;99.90
2497;DHT22;1259;48.306;14.374;2023-01-20T07:25:05;-1.70;99.90
2497;DHT22;1259;48.306;14.374;2023-01-20T07:27:32;-1.70;99.90
2497;DHT22;1259;48.306;14.374;2023-01-20T07:30:00;-1.70;99.90
2497;DHT22;1259;48.306;14.374;2023-01-20T07:32:28;-1.70;99.90
2497;DHT22;1259;48.306;14.374;2023-01-20T07:34:55;-1.70;99.90
2497;DHT22;1259;48.306;14.374;2023-01-20T07:37:22;-1.70;99.90
2497;DHT22;1259;48.306;14.374;2023-01-20T07:39:49;-1.70;99.90
2497;DHT22;1259;48.306;14.374;2023-01-20T07:42:16;-1.60;99.90
2497;DHT22;1259;48.306;14.374;2023-01-20T07:44:43;-1.60;99.90
2497;DHT22;1259;48.306;14.374;2023-01-20T07:47:11;-1.70;99.90
2497;DHT22;1259;48.306;14.374;2023-01-20T07:49:38;-1.70;99.90
2497;DHT22;1259;48.306;14.374;2023-01-20T07:52:05;-1.70;99.90
2497;DHT22;1259;48.306;14.374;2023-01-20T07:54:31;-1.60;99.90
2497;DHT22;1259;48.306;14.374;2023-01-20T07:56:58;-1.60;99.90
2497;DHT22;1259;48.306;14.374;2023-01-20T07:59:25;-1.50;99.90
2497;DHT22;1259;48.306;14.374;2023-01-20T08:01:53;-1.50;99.90
2497;DHT22;1259;48.306;14.374;2023-01-20T08:04:21;-1.50;99.90
2497;DHT22;1259;48.306;14.374;2023-01-20T08:06:48;-1.50;99.90
2497;DHT22;1259;48.306;14.374;2023-01-20T08:09:15;-1.60;99.90
2497;DHT22;1259;48.306;14.374;2023-01-20T08:11:42;-1.60;99.90
2497;DHT22;1259;48.306;14.374;2023-01-20T08:14:09;-1.60;99.90
2497;DHT22;1259;48.306;14.374;2023-01-20T08:16:35;-1.60;99.90
2497;DHT22;1259;48.306;14.374;2023-01-20T08:19:02;-1.70;99.90
2497;DHT22;1259;48.306;14.374;2023-01-20T08:21:31;-1.60;99.90
2497;DHT22;1259;48.306;14.374;2023-01-20T08:23:59;-1.70;99.90
2497;DHT22;1259;48.306;14.374;2023-01-20T08:26:28;-1.70;99.90
2497;DHT22;1259;48.306;14.374;2023-01-20T08:28:55;-1.70;99.90
2497;DHT22;1259;48.306;14.374;2023-01-20T08:31:26;-1.70;99.90
2497;DHT22;1259;48.306;14.374;2023-01-20T08:33:54;-1.70;99.90
2497;DHT22;1259;48.306;14.374;2023-01-20T08:36:24;-1.70;99.90
2497;DHT22;1259;48.306;14.374;2023-01-20T08:38:54;-1.70;99.90
2497;DHT22;1259;48.306;14.374;2023-01-20T08:41:23;-1.80;99.90
2497;DHT22;1259;48.306;14.374;2023-01-20T08:43:51;-1.70;99.90
2497;DHT22;1259;48.306;14.374;2023-01-20T08:46:19;-1.70;99.90
2497;DHT22;1259;48.306;14.374;2023-01-20T08:48:47;-1.70;99.90
2497;DHT22;1259;48.306;14.374;2023-01-20T08:51:16;-1.70;99.90
2497;DHT22;1259;48.306;14.374;2023-01-20T08:53:43;-1.70;99.90
2497;DHT22;1259;48.306;14.374;2023-01-20T08:56:13;-1.70;99.90
2497;DHT22;1259;48.306;14.374;2023-01-20T08:58:40;-1.70;99.90
2497;DHT22;1259;48.306;14.374;2023-01-20T09:01:07;-1.70;99.90
2497;DHT22;1259;48.306;14.374;2023-01-20T09:03:35;-1.60;99.90
2497;DHT22;1259;48.306;14.374;2023-01-20T09:06:02;-1.60;99.90
2497;DHT22;1259;48.306;14.374;2023-01-20T09:08:29;-1.60;99.90
2497;DHT22;1259;48.306;14.374;2023-01-20T09:11:01;-1.60;99.90
2497;DHT22;1259;48.306;14.374;2023-01-20T09:13:30;-1.60;99.90
2497;DHT22;1259;48.306;14.374;2023-01-20T09:15:57;-1.60;99.90
2497;DHT22;1259;48.306;14.374;2023-01-20T09:18:24;-1.60;99.90
2497;DHT22;1259;48.306;14.374;2023-01-20T09:20:50;-1.50;99.90
2497;DHT22;1259;48.306;14.374;2023-01-20T09:23:17;-1.50;99.90
2497;DHT22;1259;48.306;14.374;2023-01-20T09:25:44;-1.50;99.90
2497;DHT22;1259;48.306;14.374;2023-01-20T09:28:11;-1.50;99.90
2497;DHT22;1259;48.306;14.374;2023-01-20T09:30:40;-1.40;99.90
2497;DHT22;1259;48.306;14.374;2023-01-20T09:33:09;-1.30;99.90
2497;DHT22;1259;48.306;14.374;2023-01-20T09:35:35;-1.30;99.90
2497;DHT22;1259;48.306;14.374;2023-01-20T09:38:03;-1.30;99.90
2497;DHT22;1259;48.306;14.374;2023-01-20T09:40:54;-1.30;99.90
2497;DHT22;1259;48.306;14.374;2023-01-20T09:43:48;-1.20;99.90
2497;DHT22;1259;48.306;14.374;2023-01-20T09:46:29;-1.20;99.90
2497;DHT22;1259;48.306;14.374;2023-01-20T09:49:12;-1.20;99.90
2497;DHT22;1259;48.306;14.374;2023-01-20T09:52:05;-1.30;99.90
2497;DHT22;1259;48.306;14.374;2023-01-20T09:54:55;-1.30;99.90
2497;DHT22;1259;48.306;14.374;2023-01-20T09:57:24;-1.20;99.90
2497;DHT22;1259;48.306;14.374;2023-01-20T09:59:58;-1.20;99.90
2497;DHT22;1259;48.306;14.374;2023-01-20T10:02:31;-1.20;99.90
2497;DHT22;1259;48.306;14.374;2023-01-20T10:05:02;-1.20;99.90
2497;DHT22;1259;48.306;14.374;2023-01-20T10:07:36;-1.10;99.90
2497;DHT22;1259;48.306;14.374;2023-01-20T10:10:10;-1.10;99.90
2497;DHT22;1259;48.306;14.374;2023-01-20T10:12:42;-1.00;99.90
2497;DHT22;1259;48.306;14.374;2023-01-20T10:15:13;-1.10;99.90
2497;DHT22;1259;48.306;14.374;2023-01-20T10:17:47;-1.10;99.90
2497;DHT22;1259;48.306;14.374;2023-01-20T10:20:20;-1.00;99.90
2497;DHT22;1259;48.306;14.374;2023-01-20T10:22:52;-1.00;99.90
2497;DHT22;1259;48.306;14.374;2023-01-20T10:25:24;-1.00;99.90
2497;DHT22;1259;48.306;14.374;2023-01-20T10:27:55;-1.00;99.90
2497;DHT22;1259;48.306;14.374;2023-01-20T10:30:24;-1.00;99.90
2497;DHT22;1259;48.306;14.374;2023-01-20T10:32:57;-1.00;99.90
2497;DHT22;1259;48.306;14.374;2023-01-20T10:35:28;-0.90;99.90
2497;DHT22;1259;48.306;14.374;2023-01-20T10:37:56;-0.90;99.90
2497;DHT22;1259;48.306;14.374;2023-01-20T10:40:33;-0.80;99.90
2497;DHT22;1259;48.306;14.374;2023-01-20T10:43:09;-0.80;99.90
2497;DHT22;1259;48.306;14.374;2023-01-20T10:45:46;-0.80;99.90
2497;DHT22;1259;48.306;14.374;2023-01-20T10:48:28;-0.80;99.90
2497;DHT22;1259;48.306;14.374;2023-01-20T10:51:04;-0.90;99.90
2497;DHT22;1259;48.306;14.374;2023-01-20T10:53:43;-0.80;99.90
2497;DHT22;1259;48.306;14.374;2023-01-20T10:56:28;-0.70;99.90
2497;DHT22;1259;48.306;14.374;2023-01-20T10:59:03;-0.70;99.90
2497;DHT22;1259;48.306;14.374;2023-01-20T11:01:32;-0.80;99.90
2497;DHT22;1259;48.306;14.374;2023-01-20T11:04:00;-0.80;99.90
2497;DHT22;1259;48.306;14.374;2023-01-20T11:06:27;-0.70;99.90
2497;DHT22;1259;48.306;14.374;2023-01-20T11:08:54;-0.70;99.90
2497;DHT22;1259;48.306;14.374;2023-01-20T11:11:23;-0.70;99.90
2497;DHT22;1259;48.306;14.374;2023-01-20T11:13:51;-0.70;99.90
2497;DHT22;1259;48.306;14.374;2023-01-20T11:16:20;-0.60;99.90
2497;DHT22;1259;48.306;14.374;2023-01-20T11:18:58;-0.60;99.90
2497;DHT22;1259;48.306;14.374;2023-01-20T11:21:28;-0.70;99.90
2497;DHT22;1259;48.306;14.374;2023-01-20T11:23:57;-0.70;99.90
2497;DHT22;1259;48.306;14.374;2023-01-20T11:26:25;-0.80;99.90
2497;DHT22;1259;48.306;14.374;2023-01-20T11:28:55;-0.70;99.90
2497;DHT22;1259;48.306;14.374;2023-01-20T11:31:35;-0.70;99.90
2497;DHT22;1259;48.306;14.374;2023-01-20T11:34:20;-0.70;99.90
2497;DHT22;1259;48.306;14.374;2023-01-20T11:36:49;-0.60;99.90
2497;DHT22;1259;48.306;14.374;2023-01-20T11:39:27;-0.60;99.90
2497;DHT22;1259;48.306;14.374;2023-01-20T11:42:17;-0.50;99.90
2497;DHT22;1259;48.306;14.374;2023-01-20T11:44:44;-0.70;99.90
2497;DHT22;1259;48.306;14.374;2023-01-20T11:47:23;-0.60;99.90
2497;DHT22;1259;48.306;14.374;2023-01-20T11:50:24;-0.50;99.90
2497;DHT22;1259;48.306;14.374;2023-01-20T11:53:11;-0.50;99.90
2497;DHT22;1259;48.306;14.374;2023-01-20T11:55:44;-0.60;99.90
2497;DHT22;1259;48.306;14.374;2023-01-20T11:58:16;-0.60;99.90
2497;DHT22;1259;48.306;14.374;2023-01-20T12:00:44;-0.50;99.90
2497;DHT22;1259;48.306;14.374;2023-01-20T12:06:23;-0.50;99.90
2497;DHT22;1259;48.306;14.374;2023-01-20T12:08:55;-0.50;99.90
2497;DHT22;1259;48.306;14.374;2023-01-20T12:11:26;-0.50;99.90
2497;DHT22;1259;48.306;14.374;2023-01-20T12:14:02;-0.40;99.90
2497;DHT22;1259;48.306;14.374;2023-01-20T12:17:10;-0.40;99.90
2497;DHT22;1259;48.306;14.374;2023-01-20T12:19:47;-0.50;99.90
2497;DHT22;1259;48.306;14.374;2023-01-20T12:22:22;-0.50;99.90
2497;DHT22;1259;48.306;14.374;2023-01-20T12:24:55;-0.50;99.90
2497;DHT22;1259;48.306;14.374;2023-01-20T12:27:44;-0.40;99.90
2497;DHT22;1259;48.306;14.374;2023-01-20T12:30:36;-0.50;99.90
2497;DHT22;1259;48.306;14.374;2023-01-20T12:35:50;-0.40;99.90
2497;DHT22;1259;48.306;14.374;2023-01-20T12:38:23;-0.40;99.90
2497;DHT22;1259;48.306;14.374;2023-01-20T12:40:52;-0.40;99.90
2497;DHT22;1259;48.306;14.374;2023-01-20T12:43:28;-0.40;99.90
2497;DHT22;1259;48.306;14.374;2023-01-20T12:46:33;-0.30;99.90
2497;DHT22;1259;48.306;14.374;2023-01-20T12:49:20;-0.30;99.90
2497;DHT22;1259;48.306;14.374;2023-01-20T12:52:01;-0.30;99.90
2497;DHT22;1259;48.306;14.374;2023-01-20T12:54:50;-0.30;99.90
2497;DHT22;1259;48.306;14.374;2023-01-20T12:57:44;-0.30;99.90
2497;DHT22;1259;48.306;14.374;2023-01-20T13:00:32;-0.30;99.90
2497;DHT22;1259;48.306;14.374;2023-01-20T13:06:36;-0.30;99.90
2497;DHT22;1259;48.306;14.374;2023-01-20T13:09:16;-0.30;99.90
2497;DHT22;1259;48.306;14.374;2023-01-20T13:11:57;-0.30;99.90
2497;DHT22;1259;48.306;14.374;2023-01-20T13:14:33;-0.30;99.90
2497;DHT22;1259;48.306;14.374;2023-01-20T13:17:14;-0.40;99.90
2497;DHT22;1259;48.306;14.374;2023-01-20T13:19:43;-0.30;99.90
2497;DHT22;1259;48.306;14.374;2023-01-20T13:22:16;-0.30;99.90
2497;DHT22;1259;48.306;14.374;2023-01-20T13:24:47;-0.30;99.90
2497;DHT22;1259;48.306;14.374;2023-01-20T13:27:17;-0.40;99.90
2497;DHT22;1259;48.306;14.374;2023-01-20T13:29:54;-0.40;99.90
2497;DHT22;1259;48.306;14.374;2023-01-20T13:32:29;-0.40;99.90
2497;DHT22;1259;48.306;14.374;2023-01-20T13:34:57;-0.50;99.90
2497;DHT22;1259;48.306;14.374;2023-01-20T13:37:35;-0.50;99.90
2497;DHT22;1259;48.306;14.374;2023-01-20T13:40:03;-0.50;99.90
2497;DHT22;1259;48.306;14.374;2023-01-20T13:42:47;-0.50;99.90
2497;DHT22;1259;48.306;14.374;2023-01-20T13:45:24;-0.50;99.90
2497;DHT22;1259;48.306;14.374;2023-01-20T13:50:43;-0.50;99.90
2497;DHT22;1259;48.306;14.374;2023-01-20T13:53:22;-0.50;99.90
2497;DHT22;1259;48.306;14.374;2023-01-20T13:55:59;-0.40;99.90
2497;DHT22;1259;48.306;14.374;2023-01-20T13:58:28;-0.50;99.90
2497;DHT22;1259;48.306;14.374;2023-01-20T14:00:59;-0.50;99.90
2497;DHT22;1259;48.306;14.374;2023-01-20T14:03:28;-0.60;99.90
2497;DHT22;1259;48.306;14.374;2023-01-20T14:05:58;-0.50;99.90
2497;DHT22;1259;48.306;14.374;2023-01-20T14:08:26;-0.50;99.90
2497;DHT22;1259;48.306;14.374;2023-01-20T14:11:09;-0.50;99.90
2497;DHT22;1259;48.306;14.374;2023-01-20T14:13:37;-0.60;99.90
2497;DHT22;1259;48.306;14.374;2023-01-20T14:16:15;-0.60;99.90
2497;DHT22;1259;48.306;14.374;2023-01-20T14:18:43;-0.60;99.90
2497;DHT22;1259;48.306;14.374;2023-01-20T14:21:17;-0.60;99.90
2497;DHT22;1259;48.306;14.374;2023-01-20T14:23:44;-0.60;99.90
2497;DHT22;1259;48.306;14.374;2023-01-20T14:26:12;-0.60;99.90
2497;DHT22;1259;48.306;14.374;2023-01-20T14:28:44;-0.70;99.90
2497;DHT22;1259;48.306;14.374;2023-01-20T14:31:19;-0.70;99.90
2497;DHT22;1259;48.306;14.374;2023-01-20T14:33:57;-0.70;99.90
2497;DHT22;1259;48.306;14.374;2023-01-20T14:36:26;-0.70;99.90
2497;DHT22;1259;48.306;14.374;2023-01-20T14:38:58;-0.70;99.90
2497;DHT22;1259;48.306;14.374;2023-01-20T14:41:28;-0.70;99.90
2497;DHT22;1259;48.306;14.374;2023-01-20T14:43:56;-0.70;99.90
2497;DHT22;1259;48.306;14.374;2023-01-20T14:46:25;-0.70;99.90
2497;DHT22;1259;48.306;14.374;2023-01-20T14:48:53;-0.70;99.90
2497;DHT22;1259;48.306;14.374;2023-01-20T14:51:21;-0.80;99.90
2497;DHT22;1259;48.306;14.374;2023-01-20T14:56:49;-0.80;99.90
2497;DHT22;1259;48.306;14.374;2023-01-20T14:59:18;-0.80;99.90
2497;DHT22;1259;48.306;14.374;2023-01-20T15:01:52;-0.80;99.90
2497;DHT22;1259;48.306;14.374;2023-01-20T15:04:19;-0.80;99.90
2497;DHT22;1259;48.306;14.374;2023-01-20T15:06:51;-0.80;99.90
2497;DHT22;1259;48.306;14.374;2023-01-20T15:09:29;-0.80;99.90
2497;DHT22;1259;48.306;14.374;2023-01-20T15:12:31;-0.80;99.90
2497;DHT22;1259;48.306;14.374;2023-01-20T15:15:18;-0.80;99.90
2497;DHT22;1259;48.306;14.374;2023-01-20T15:18:13;-0.90;99.90
2497;DHT22;1259;48.306;14.374;2023-01-20T15:20:43;-0.80;99.90
2497;DHT22;1259;48.306;14.374;2023-01-20T15:23:26;-0.80;99.90
2497;DHT22;1259;48.306;14.374;2023-01-20T15:25:55;-0.80;99.90
2497;DHT22;1259;48.306;14.374;2023-01-20T15:28:26;-0.80;99.90
2497;DHT22;1259;48.306;14.374;2023-01-20T15:30:55;-0.80;99.90
2497;DHT22;1259;48.306;14.374;2023-01-20T15:33:24;-0.80;99.90
2497;DHT22;1259;48.306;14.374;2023-01-20T15:35:56;-0.80;99.90
2497;DHT22;1259;48.306;14.374;2023-01-20T15:38:24;-0.80;99.90
2497;DHT22;1259;48.306;14.374;2023-01-20T15:40:53;-0.90;99.90
2497;DHT22;1259;48.306;14.374;2023-01-20T15:43:19;-0.80;99.90
2497;DHT22;1259;48.306;14.374;2023-01-20T15:45:46;-0.80;99.90
2497;DHT22;1259;48.306;14.374;2023-01-20T15:48:15;-0.80;99.90
2497;DHT22;1259;48.306;14.374;2023-01-20T15:50:44;-0.90;99.90
2497;DHT22;1259;48.306;14.374;2023-01-20T15:53:12;-0.90;99.90
2497;DHT22;1259;48.306;14.374;2023-01-20T15:55:44;-0.90;99.90
2497;DHT22;1259;48.306;14.374;2023-01-20T15:58:25;-0.90;99.90
2497;DHT22;1259;48.306;14.374;2023-01-20T16:00:53;-0.80;99.90
2497;DHT22;1259;48.306;14.374;2023-01-20T16:03:20;-0.90;99.90
2497;DHT22;1259;48.306;14.374;2023-01-20T16:05:50;-0.90;99.90
2497;DHT22;1259;48.306;14.374;2023-01-20T16:08:18;-0.90;99.90
2497;DHT22;1259;48.306;14.374;2023-01-20T16:10:46;-0.90;99.90
2497;DHT22;1259;48.306;14.374;2023-01-20T16:13:13;-0.90;99.90
2497;DHT22;1259;48.306;14.374;2023-01-20T16:15:41;-0.90;99.90
2497;DHT22;1259;48.306;14.374;2023-01-20T16:18:11;-0.90;99.90
2497;DHT22;1259;48.306;14.374;2023-01-20T16:20:41;-0.90;99.90
2497;DHT22;1259;48.306;14.374;2023-01-20T16:23:09;-0.90;99.90
2497;DHT22;1259;48.306;14.374;2023-01-20T16:25:37;-0.90;99.90
2497;DHT22;1259;48.306;14.374;2023-01-20T16:28:14;-0.90;99.90